Time;durP1;ratioP1;P1;durP2;ratioP2;P2;SDS_P1;SDS_P2;PMS_P1;PMS_P2;Temp;Humidity;BMP_temperature;BMP_pressure;BME280_temperature;BME280_humidity;BME280_pressure;Samples;Min_cycle;Max_cycle;Signal;HPM_P1;HPM_P2
2022/06/08 00:00:44;;;;;;;6.20;5.60;;;;;;;23.95;68.35;99600.94;6241721;23;20035;-71
2022/06/08 00:03:21;;;;;;;9.70;6.60;;;;;;;23.94;68.38;99602.88;6242100;22;20012;-71
2022/06/08 00:05:47;;;;;;;7.63;5.60;;;;;;;23.91;68.19;99608.78;6241753;22;20004;-71
2022/06/08 00:08:12;;;;;;;6.82;6.03;;;;;;;23.85;68.77;99601.50;6242261;22;20058;-71
2022/06/08 00:10:38;;;;;;;7.53;6.47;;;;;;;23.85;69.33;99608.88;6240543;23;19996;-71
2022/06/08 00:13:04;;;;;;;12.98;6.70;;;;;;;23.84;69.62;99615.44;6242158;22;20004;-71
2022/06/08 00:15:30;;;;;;;7.82;6.45;;;;;;;23.77;69.16;99610.06;6242140;22;20004;-71
2022/06/08 00:17:56;;;;;;;10.68;6.40;;;;;;;23.76;68.84;99624.03;6241932;22;20326;-71
2022/06/08 00:20:22;;;;;;;8.48;6.30;;;;;;;23.72;68.73;99618.16;6241870;22;20012;-71
2022/06/08 00:22:48;;;;;;;7.78;5.97;;;;;;;23.66;68.17;99610.91;6242078;22;20019;-71
2022/06/08 00:25:13;;;;;;;9.13;5.82;;;;;;;23.61;69.59;99608.03;6242096;22;20030;-71
2022/06/08 00:27:39;;;;;;;5.93;5.32;;;;;;;23.58;69.05;99605.78;6242140;22;20011;-71
2022/06/08 00:30:07;;;;;;;7.43;5.13;;;;;;;23.47;68.99;99601.09;6242356;22;20004;-71
2022/06/08 00:32:33;;;;;;;7.70;6.13;;;;;;;23.42;70.74;99600.13;6242069;22;20031;-71
2022/06/08 00:35:00;;;;;;;7.78;5.60;;;;;;;23.33;71.50;99596.06;6241631;22;20489;-71
2022/06/08 00:37:26;;;;;;;9.45;5.28;;;;;;;23.33;73.06;99605.13;6242101;22;20008;-71
2022/06/08 00:39:51;;;;;;;5.72;5.13;;;;;;;23.28;72.41;99607.69;6241969;22;20004;-71
2022/06/08 00:42:18;;;;;;;9.88;5.97;;;;;;;23.17;72.99;99600.28;6242029;22;20645;-71
2022/06/08 00:44:52;;;;;;;6.13;5.53;;;;;;;23.19;73.76;99613.72;6241983;22;20094;-71
2022/06/08 00:47:22;;;;;;;7.28;6.00;;;;;;;23.14;75.19;99608.09;6241806;22;20019;-71
2022/06/08 00:50:13;;;;;;;13.55;5.85;;;;;;;22.94;75.96;99593.88;6241747;22;20100;-71
2022/06/08 00:52:39;;;;;;;6.15;5.28;;;;;;;22.95;77.48;99599.13;6243871;22;20271;-71
2022/06/08 00:55:08;;;;;;;6.10;5.53;;;;;;;22.98;76.24;99608.75;6243675;22;20323;-71
2022/06/08 00:57:39;;;;;;;6.82;5.45;;;;;;;22.91;76.38;99608.84;6243136;22;20497;-71
2022/06/08 01:00:10;;;;;;;7.63;5.63;;;;;;;22.80;77.75;99595.97;6242791;22;20017;-71
2022/06/08 01:02:36;;;;;;;7.45;6.05;;;;;;;22.75;79.78;99595.81;6243937;22;20057;-71
2022/06/08 01:05:46;;;;;;;6.40;5.28;;;;;;;22.68;79.14;99597.81;6243925;22;20016;-71
2022/06/08 01:08:37;;;;;;;8.35;5.93;;;;;;;22.65;79.27;99603.72;6187273;22;20011;-71
2022/06/08 01:11:06;;;;;;;11.18;6.30;;;;;;;22.59;79.06;99604.66;6243864;22;20004;-71
2022/06/08 01:13:34;;;;;;;6.63;5.95;;;;;;;22.57;79.83;99617.69;6244049;22;20007;-71
2022/06/08 01:16:06;;;;;;;7.50;6.15;;;;;;;22.52;81.43;99611.25;6243556;22;20083;-71
2022/06/08 01:18:32;;;;;;;7.65;5.72;;;;;;;22.38;81.46;99592.25;6243605;22;20332;-71
2022/06/08 01:21:35;;;;;;;8.00;5.75;;;;;;;22.41;81.35;99615.56;6243667;22;20016;-71
2022/06/08 01:24:04;;;;;;;12.30;6.03;;;;;;;22.35;82.25;99603.63;6243491;23;20000;-71
2022/06/08 01:26:49;;;;;;;7.25;6.10;;;;;;;22.33;83.04;99613.13;6242215;23;20593;-71
2022/06/08 01:29:14;;;;;;;7.15;6.40;;;;;;;22.28;82.84;99605.59;6243724;23;20004;-71
2022/06/08 01:32:02;;;;;;;8.50;6.28;;;;;;;22.24;83.45;99606.28;6243582;23;20046;-71
2022/06/08 01:34:46;;;;;;;8.23;6.40;;;;;;;22.23;83.52;99607.34;6242207;23;20020;-71
2022/06/08 01:37:26;;;;;;;7.22;6.53;;;;;;;22.17;84.09;99613.72;6243537;23;20053;-71
2022/06/08 01:39:58;;;;;;;6.25;5.65;;;;;;;22.09;84.05;99595.72;6243377;22;20667;-71
2022/06/08 01:42:27;;;;;;;7.05;6.30;;;;;;;22.11;84.63;99603.69;6243720;22;20079;-71
2022/06/08 01:47:59;;;;;;;9.88;6.43;;;;;;;22.02;85.53;99597.69;6243226;23;20050;-70
2022/06/08 01:50:36;;;;;;;7.72;6.32;;;;;;;21.99;86.12;99600.88;6243533;22;20449;-71
2022/06/08 01:53:21;;;;;;;7.32;6.57;;;;;;;21.91;85.38;99595.72;6243708;22;20006;-71
2022/06/08 01:56:15;;;;;;;6.50;5.90;;;;;;;21.91;86.03;99594.88;6243555;22;20043;-71
2022/06/08 01:59:05;;;;;;;6.33;5.77;;;;;;;21.86;87.01;99594.72;6241714;23;20020;-70
2022/06/08 02:02:16;;;;;;;9.13;6.40;;;;;;;21.83;87.65;99586.97;6243088;22;20721;-71
2022/06/08 02:05:17;;;;;;;8.70;7.00;;;;;;;21.76;88.01;99583.44;6212560;22;20012;-71
2022/06/08 02:07:58;;;;;;;8.73;6.10;;;;;;;21.72;88.31;99582.19;6237458;23;20008;-71
2022/06/08 02:11:04;;;;;;;7.10;6.40;;;;;;;21.68;88.75;99583.72;6243554;22;19996;-71
2022/06/08 02:13:41;;;;;;;8.32;6.20;;;;;;;21.63;88.89;99584.38;6242446;23;20018;-71
2022/06/08 02:16:16;;;;;;;7.35;6.65;;;;;;;21.59;89.11;99579.59;6243584;22;20011;-70
2022/06/08 02:18:50;;;;;;;9.57;6.70;;;;;;;21.62;89.64;99595.53;6241785;23;20004;-71
2022/06/08 02:21:34;;;;;;;9.27;6.63;;;;;;;21.55;89.15;99578.38;6243163;22;20341;-71
2022/06/08 02:24:11;;;;;;;8.68;7.00;;;;;;;21.57;90.28;99595.38;6243216;22;20007;-71
2022/06/08 02:26:43;;;;;;;7.50;6.80;;;;;;;21.55;89.90;99608.38;6241832;23;20034;-70
2022/06/08 02:29:18;;;;;;;6.85;5.72;;;;;;;21.48;89.31;99602.97;6243424;22;20664;-70
2022/06/08 02:31:49;;;;;;;8.27;6.25;;;;;;;21.46;90.16;99607.84;6243204;22;20432;-71
2022/06/08 02:34:31;;;;;;;8.05;6.57;;;;;;;21.44;90.09;99603.66;6243074;22;20022;-71
2022/06/08 02:36:56;;;;;;;8.15;6.68;;;;;;;21.42;90.53;99608.50;6243033;22;20004;-71
2022/06/08 02:39:38;;;;;;;7.10;6.20;;;;;;;21.38;90.58;99610.00;6243105;22;20004;-71
2022/06/08 02:42:10;;;;;;;10.05;6.90;;;;;;;21.36;91.35;99609.38;6243006;22;20035;-70
2022/06/08 02:44:38;;;;;;;8.15;6.80;;;;;;;21.35;90.70;99618.63;6242982;22;20015;-70
2022/06/08 02:47:13;;;;;;;7.68;6.97;;;;;;;21.31;91.03;99611.94;6243018;22;20004;-71
2022/06/08 02:49:39;;;;;;;7.63;6.57;;;;;;;21.23;91.12;99601.28;6243103;22;20008;-70
2022/06/08 02:52:25;;;;;;;10.60;6.20;;;;;;;21.25;91.55;99610.09;6241287;23;20016;-70
2022/06/08 02:54:51;;;;;;;8.63;6.15;;;;;;;21.28;92.00;99615.09;6243071;22;20011;-70
2022/06/08 02:57:24;;;;;;;8.27;6.60;;;;;;;21.27;91.76;99613.41;6243075;22;20130;-71
2022/06/08 02:59:53;;;;;;;7.13;6.43;;;;;;;21.17;92.91;99604.88;6242754;22;20024;-70
2022/06/08 03:02:33;;;;;;;7.72;6.93;;;;;;;21.20;92.62;99616.22;6241404;23;20055;-71
2022/06/08 03:05:17;;;;;;;8.60;7.22;;;;;;;21.23;92.89;99620.38;6242809;22;20008;-71
2022/06/08 03:07:45;;;;;;;10.43;7.32;;;;;;;21.22;92.86;99626.91;6242520;23;20578;-71
2022/06/08 03:10:14;;;;;;;11.02;7.47;;;;;;;21.21;93.16;99625.19;6242491;22;20052;-71
2022/06/08 03:12:53;;;;;;;8.55;7.15;;;;;;;21.19;92.59;99616.44;6241413;22;20000;-71
2022/06/08 03:15:23;;;;;;;8.10;7.05;;;;;;;21.18;93.25;99625.66;6240931;23;20035;-71
2022/06/08 03:17:50;;;;;;;9.15;6.95;;;;;;;21.12;93.42;99618.38;6242164;22;20079;-71
2022/06/08 03:20:17;;;;;;;10.73;7.20;;;;;;;21.19;93.84;99627.34;6241029;23;20008;-71
2022/06/08 03:22:43;;;;;;;9.77;7.30;;;;;;;21.16;93.51;99631.34;6242781;22;20012;-71
2022/06/08 03:25:09;;;;;;;11.45;7.03;;;;;;;21.16;94.15;99628.63;6240212;23;20018;-71
2022/06/08 03:27:37;;;;;;;7.80;6.80;;;;;;;21.18;93.90;99636.59;6242918;22;20083;-71
2022/06/08 03:30:04;;;;;;;8.90;8.05;;;;;;;21.16;93.76;99635.94;6242590;22;20000;-70
2022/06/08 03:32:30;;;;;;;8.00;7.25;;;;;;;21.13;93.19;99629.06;6242896;22;20376;-70
2022/06/08 03:34:55;;;;;;;7.75;7.03;;;;;;;21.11;93.34;99635.75;6242668;22;20077;-70
2022/06/08 03:37:20;;;;;;;8.77;7.88;;;;;;;21.09;93.96;99630.53;6237042;22;20035;-70
2022/06/08 03:39:46;;;;;;;8.45;7.57;;;;;;;21.10;94.90;99632.22;6242406;22;20012;-70
2022/06/08 03:42:11;;;;;;;10.88;7.78;;;;;;;21.12;95.09;99632.81;6242547;22;20004;-71
2022/06/08 03:44:37;;;;;;;10.35;8.50;;;;;;;21.10;95.35;99628.63;6242532;23;20008;-70
2022/06/08 03:47:17;;;;;;;10.55;8.30;;;;;;;21.08;95.83;99630.75;6242354;22;20015;-70
2022/06/08 03:49:42;;;;;;;8.98;8.07;;;;;;;21.08;96.14;99628.84;6231567;23;20468;-70
2022/06/08 03:52:15;;;;;;;12.70;8.27;;;;;;;21.07;96.11;99632.66;6242744;22;20016;-70
2022/06/08 03:54:48;;;;;;;12.27;9.05;;;;;;;21.03;96.42;99622.41;6242629;22;20004;-71
2022/06/08 03:57:15;;;;;;;16.75;8.40;;;;;;;21.06;96.92;99628.25;6242712;22;20004;-71
2022/06/08 03:59:44;;;;;;;8.77;7.97;;;;;;;21.10;96.12;99631.38;6241945;22;20016;-70
2022/06/08 04:02:10;;;;;;;10.18;8.18;;;;;;;21.10;96.87;99634.09;6241699;22;20012;-70
2022/06/08 04:04:38;;;;;;;9.52;8.40;;;;;;;21.06;96.95;99625.53;6241787;22;20504;-69
2022/06/08 04:07:04;;;;;;;12.25;8.73;;;;;;;21.10;97.00;99628.63;6242341;22;20225;-70
2022/06/08 04:09:30;;;;;;;15.98;9.05;;;;;;;21.12;97.20;99632.00;6242079;22;20007;-70
2022/06/08 04:11:55;;;;;;;11.65;9.32;;;;;;;21.11;97.25;99633.88;6242182;22;20004;-70
2022/06/08 04:14:21;;;;;;;9.77;8.20;;;;;;;21.21;96.78;99641.56;6242482;22;20050;-70
2022/06/08 04:16:47;;;;;;;12.25;8.35;;;;;;;21.24;96.62;99643.84;6242356;22;20012;-70
2022/06/08 04:19:14;;;;;;;10.65;7.80;;;;;;;21.27;96.35;99643.41;6242339;22;20007;-70
2022/06/08 04:21:41;;;;;;;9.48;8.23;;;;;;;21.31;95.86;99640.03;6243317;22;20440;-71
2022/06/08 04:24:10;;;;;;;8.85;6.70;;;;;;;21.43;95.27;99646.47;6242361;22;20000;-71
2022/06/08 04:26:36;;;;;;;12.23;7.95;;;;;;;21.51;94.80;99637.19;6242181;22;20333;-71
2022/06/08 04:29:02;;;;;;;12.00;9.05;;;;;;;21.57;93.79;99628.13;6242129;22;20000;-71
2022/06/08 04:31:32;;;;;;;11.40;8.68;;;;;;;21.70;93.72;99634.28;6242103;22;20495;-71
2022/06/08 04:33:58;;;;;;;8.65;7.57;;;;;;;21.81;92.96;99633.63;6242047;22;20012;-71
2022/06/08 04:36:24;;;;;;;10.02;7.90;;;;;;;21.93;92.40;99641.91;6241788;22;20431;-71
2022/06/08 04:38:50;;;;;;;11.23;7.55;;;;;;;22.06;91.65;99636.31;6242055;22;20455;-71
2022/06/08 04:41:17;;;;;;;6.68;6.00;;;;;;;22.22;90.65;99635.75;6241772;22;20004;-71
2022/06/08 04:43:42;;;;;;;8.15;7.30;;;;;;;22.35;90.25;99625.50;6242070;22;20095;-71
2022/06/08 04:46:08;;;;;;;8.95;7.53;;;;;;;22.45;88.85;99621.41;6242091;22;20032;-72
2022/06/08 04:48:34;;;;;;;9.30;7.00;;;;;;;22.58;88.16;99619.38;6240466;23;20015;-71
2022/06/08 04:50:59;;;;;;;9.73;7.40;;;;;;;22.59;85.90;99603.78;6241964;22;20391;-71
2022/06/08 04:53:25;;;;;;;8.52;6.25;;;;;;;22.76;85.92;99624.00;6240369;23;20004;-72
2022/06/08 04:55:50;;;;;;;7.15;6.45;;;;;;;22.71;84.98;99602.81;6239849;23;20058;-71
2022/06/08 04:58:17;;;;;;;8.88;6.80;;;;;;;22.93;84.82;99633.25;6241351;22;20020;-71
2022/06/08 05:00:43;;;;;;;9.57;5.60;;;;;;;23.08;84.48;99637.22;6241363;22;20122;-71
2022/06/08 05:03:08;;;;;;;9.20;7.15;;;;;;;23.16;83.38;99645.13;6241430;22;20039;-72
2022/06/08 05:05:37;;;;;;;8.10;6.43;;;;;;;23.28;82.84;99647.94;6241306;22;20008;-71
2022/06/08 05:08:04;;;;;;;9.52;6.20;;;;;;;23.38;82.11;99646.28;6240834;22;20012;-72
2022/06/08 05:10:32;;;;;;;8.45;6.10;;;;;;;23.50;81.96;99644.44;6241057;22;20004;-73
2022/06/08 05:12:59;;;;;;;8.65;6.85;;;;;;;23.62;81.11;99638.97;6241382;22;20000;-73
2022/06/08 05:15:28;;;;;;;6.72;5.57;;;;;;;23.81;80.35;99646.03;6239612;23;20023;-73
2022/06/08 05:17:55;;;;;;;6.00;5.40;;;;;;;23.97;78.45;99650.84;6240902;22;20340;-72
2022/06/08 05:20:21;;;;;;;10.18;6.50;;;;;;;24.06;76.54;99643.97;6241119;22;20008;-72
2022/06/08 05:22:48;;;;;;;8.52;6.43;;;;;;;24.30;75.21;99656.56;6241235;22;20024;-71
2022/06/08 05:25:36;;;;;;;9.02;5.88;;;;;;;24.48;73.35;99656.47;6241065;22;20014;-72
2022/06/08 05:28:04;;;;;;;6.82;6.13;;;;;;;24.59;71.64;99663.81;6240584;22;20398;-72
2022/06/08 05:30:32;;;;;;;5.97;5.07;;;;;;;24.64;71.63;99655.75;6241461;22;20004;-73
2022/06/08 05:32:58;;;;;;;6.32;5.50;;;;;;;24.74;69.56;99672.44;6239985;23;20083;-74
2022/06/08 05:35:24;;;;;;;8.00;6.40;;;;;;;24.76;68.81;99655.72;6241445;22;20008;-72
2022/06/08 05:37:51;;;;;;;5.60;5.00;;;;;;;24.89;68.76;99663.69;6242733;22;20019;-72
2022/06/08 05:40:17;;;;;;;6.50;4.55;;;;;;;24.91;68.63;99665.09;6243570;22;20004;-73
2022/06/08 05:42:43;;;;;;;6.35;5.75;;;;;;;24.97;67.41;99658.66;6244295;22;20448;-74
2022/06/08 05:45:15;;;;;;;7.57;5.53;;;;;;;25.06;65.98;99661.84;6242410;22;20012;-72
2022/06/08 05:47:41;;;;;;;6.00;4.57;;;;;;;25.07;64.74;99658.00;6239920;22;20004;-74
2022/06/08 05:50:07;;;;;;;5.82;4.05;;;;;;;25.05;61.62;99652.75;6235443;22;20003;-73
2022/06/08 05:52:33;;;;;;;5.15;4.35;;;;;;;25.10;60.91;99652.88;6242642;22;20035;-73
2022/06/08 05:54:59;;;;;;;3.97;3.45;;;;;;;25.30;58.91;99660.66;6243069;22;20077;-72
2022/06/08 05:57:24;;;;;;;7.43;4.22;;;;;;;25.42;56.44;99653.22;6243257;22;20481;-72
2022/06/08 05:59:50;;;;;;;3.20;2.75;;;;;;;25.61;54.88;99657.44;6242834;22;20043;-72
2022/06/08 06:02:16;;;;;;;4.15;3.15;;;;;;;25.79;53.21;99648.97;6243287;22;20015;-72
2022/06/08 06:04:42;;;;;;;5.28;3.35;;;;;;;26.01;52.90;99664.47;6243814;22;20000;-72
2022/06/08 06:07:09;;;;;;;4.82;3.40;;;;;;;26.14;52.06;99666.91;6241680;23;20062;-72
2022/06/08 06:09:35;;;;;;;3.40;2.72;;;;;;;26.36;51.67;99673.28;6244528;22;20392;-72
2022/06/08 06:12:01;;;;;;;3.40;2.85;;;;;;;26.56;50.26;99656.22;6245821;22;20004;-73
2022/06/08 06:14:26;;;;;;;4.28;3.10;;;;;;;26.71;49.00;99656.47;6245010;22;20030;-72
2022/06/08 06:16:52;;;;;;;3.15;2.53;;;;;;;26.90;47.88;99662.50;6245627;22;20028;-73
2022/06/08 06:19:27;;;;;;;5.90;2.55;;;;;;;27.02;47.84;99669.53;6244580;22;20032;-75
2022/06/08 06:21:53;;;;;;;5.72;2.75;;;;;;;27.14;46.42;99653.72;6245120;23;20671;-74
2022/06/08 06:24:19;;;;;;;4.18;2.88;;;;;;;27.18;46.85;99654.03;6243375;23;20093;-72
2022/06/08 06:26:45;;;;;;;4.38;2.35;;;;;;;27.34;46.45;99664.16;6244983;22;20058;-74
2022/06/08 06:29:11;;;;;;;5.72;2.88;;;;;;;27.47;45.71;99653.56;6243419;23;20337;-72
2022/06/08 06:31:49;;;;;;;2.85;2.60;;;;;;;27.64;45.33;99648.78;6244876;22;19997;-73
2022/06/08 06:34:17;;;;;;;2.83;2.20;;;;;;;27.77;45.04;99648.34;6244963;22;20000;-73
2022/06/08 06:36:43;;;;;;;11.25;3.00;;;;;;;27.89;44.85;99643.50;6244951;22;20003;-74
2022/06/08 06:39:09;;;;;;;3.33;2.53;;;;;;;27.98;44.57;99644.69;6244582;22;20008;-74
2022/06/08 06:41:35;;;;;;;2.28;1.80;;;;;;;28.08;44.05;99642.00;6245013;22;20004;-73
2022/06/08 06:44:00;;;;;;;3.15;2.20;;;;;;;28.23;43.22;99635.78;6244831;23;20433;-74
2022/06/08 06:46:26;;;;;;;4.30;2.13;;;;;;;28.33;43.46;99633.91;6245242;22;20079;-74
2022/06/08 06:48:52;;;;;;;2.67;2.20;;;;;;;28.46;43.54;99644.50;6244208;22;20008;-73
2022/06/08 06:51:18;;;;;;;2.50;2.30;;;;;;;28.54;43.32;99641.22;6244850;22;20017;-74
2022/06/08 06:53:44;;;;;;;4.05;2.38;;;;;;;28.50;41.94;99614.44;6244603;22;20067;-74
2022/06/08 06:56:10;;;;;;;4.43;2.15;;;;;;;28.75;42.35;99638.59;6244363;22;20008;-74
2022/06/08 06:58:37;;;;;;;4.20;2.00;;;;;;;28.78;41.13;99624.25;6244332;22;20016;-74
2022/06/08 07:01:07;;;;;;;5.20;2.40;;;;;;;28.93;41.23;99627.06;6244271;22;20054;-74
2022/06/08 07:03:33;;;;;;;1.85;1.73;;;;;;;29.06;39.90;99618.31;6244304;22;20050;-73
2022/06/08 07:05:59;;;;;;;2.58;2.20;;;;;;;29.22;39.32;99626.38;6244778;22;20012;-74
2022/06/08 07:08:26;;;;;;;2.70;2.15;;;;;;;29.31;39.45;99619.19;6244262;22;20012;-74
2022/06/08 07:13:36;;;;;;;3.25;2.13;;;;;;;29.43;39.31;99613.44;6244008;23;20034;-74
2022/06/08 07:16:02;;;;;;;3.65;2.20;;;;;;;29.48;39.63;99622.56;6243295;22;20070;-74
2022/06/08 07:18:27;;;;;;;2.20;2.00;;;;;;;29.58;39.40;99618.97;6242508;22;20008;-74
2022/06/08 07:20:53;;;;;;;2.90;1.95;;;;;;;29.68;39.70;99610.72;6241127;23;20007;-75
2022/06/08 07:23:19;;;;;;;3.08;2.25;;;;;;;29.79;39.06;99618.72;6242214;22;20015;-74
2022/06/08 07:25:44;;;;;;;2.63;2.00;;;;;;;29.86;39.17;99615.72;6242830;22;20562;-74
2022/06/08 07:28:10;;;;;;;5.05;2.13;;;;;;;29.96;38.49;99624.00;6242306;23;20012;-74
2022/06/08 07:30:36;;;;;;;2.33;2.00;;;;;;;29.96;37.93;99624.84;6236062;23;20050;-74
2022/06/08 07:33:02;;;;;;;6.78;2.10;;;;;;;29.97;38.21;99609.06;6242521;22;20083;-74
2022/06/08 07:35:28;;;;;;;4.25;2.35;;;;;;;30.11;37.97;99624.81;6242140;22;20008;-74
2022/06/08 07:37:54;;;;;;;5.03;2.20;;;;;;;30.20;37.50;99619.56;6242236;22;20004;-72
2022/06/08 07:40:19;;;;;;;3.50;2.00;;;;;;;30.21;37.50;99626.78;6240357;23;20495;-73
2022/06/08 07:42:45;;;;;;;6.47;2.40;;;;;;;30.19;37.28;99629.00;6242056;22;20004;-73
2022/06/08 07:45:11;;;;;;;6.47;2.33;;;;;;;30.18;37.61;99630.91;6241483;23;20007;-73
2022/06/08 07:49:36;;;;;;;2.40;1.90;;;;;;;30.21;37.27;99633.13;6240370;23;20012;-74
2022/06/08 07:50:24;;;;;;;3.20;2.30;;;;;;;30.27;37.73;99620.09;6241634;23;20038;-74
2022/06/08 07:52:49;;;;;;;4.97;2.17;;;;;;;30.32;37.75;99622.88;6241908;22;20043;-74
2022/06/08 07:55:15;;;;;;;2.35;2.15;;;;;;;30.37;36.77;99598.78;6242113;22;20007;-74
2022/06/08 07:57:40;;;;;;;2.00;1.80;;;;;;;30.38;37.33;99607.94;6241948;22;20004;-74
2022/06/08 08:00:06;;;;;;;3.13;2.38;;;;;;;30.45;37.44;99616.75;6241128;22;20560;-74
2022/06/08 08:02:32;;;;;;;3.05;1.70;;;;;;;30.46;36.61;99604.56;6241918;22;20447;-73
2022/06/08 08:04:57;;;;;;;2.08;1.88;;;;;;;30.52;36.68;99608.97;6239949;23;20023;-74
2022/06/08 08:07:23;;;;;;;4.40;2.22;;;;;;;30.45;36.57;99594.63;6242007;22;20026;-74
2022/06/08 08:09:49;;;;;;;3.92;1.92;;;;;;;30.51;36.77;99605.41;6241817;22;20516;-74
2022/06/08 08:12:15;;;;;;;3.88;2.05;;;;;;;30.52;36.83;99601.53;6241959;22;20360;-74
2022/06/08 08:14:41;;;;;;;5.60;2.47;;;;;;;30.40;37.06;99578.84;6241489;22;20010;-73
2022/06/08 08:17:07;;;;;;;2.70;2.05;;;;;;;30.55;36.95;99584.34;6241831;22;20079;-74
2022/06/08 08:19:33;;;;;;;5.85;2.40;;;;;;;30.56;37.08;99585.16;6241410;22;19996;-74
2022/06/08 08:21:59;;;;;;;4.00;2.42;;;;;;;30.67;36.88;99599.78;6241517;22;20012;-74
2022/06/08 08:24:25;;;;;;;4.93;2.47;;;;;;;30.67;37.24;99584.03;6241930;22;20444;-74
2022/06/08 08:26:51;;;;;;;3.03;2.40;;;;;;;30.71;37.09;99587.88;6243622;22;20081;-74
2022/06/08 08:29:18;;;;;;;4.57;2.58;;;;;;;30.86;37.23;99590.63;6241500;23;20019;-75
2022/06/08 08:31:44;;;;;;;3.38;2.13;;;;;;;30.94;37.16;99601.09;6243105;22;20006;-74
2022/06/08 08:34:11;;;;;;;5.28;2.45;;;;;;;30.95;36.77;99599.16;6242649;22;20031;-74
2022/06/08 08:36:36;;;;;;;2.78;2.53;;;;;;;30.97;37.07;99586.69;6242214;22;20004;-72
2022/06/08 08:39:05;;;;;;;3.58;2.42;;;;;;;31.06;37.41;99593.28;6241800;22;20586;-73
2022/06/08 08:44:44;;;;;;;3.03;2.72;;;;;;;31.15;37.23;99587.97;6242026;23;20536;-74
2022/06/08 08:47:34;;;;;;;3.50;2.80;;;;;;;31.22;37.48;99583.78;6243207;22;20372;-73
2022/06/08 08:50:22;;;;;;;2.55;2.33;;;;;;;31.31;37.13;99582.09;6242296;23;20038;-73
2022/06/08 08:53:07;;;;;;;5.53;2.50;;;;;;;31.38;37.19;99585.34;6241945;22;20018;-73
2022/06/08 08:55:56;;;;;;;4.30;2.60;;;;;;;31.43;36.40;99585.31;6239762;23;20008;-72
2022/06/08 08:58:40;;;;;;;5.70;2.40;;;;;;;31.40;36.61;99576.75;6241474;22;20012;-74
2022/06/08 09:01:18;;;;;;;4.25;2.55;;;;;;;31.47;36.36;99580.84;6241335;22;20020;-73
2022/06/08 09:03:47;;;;;;;5.03;2.80;;;;;;;31.41;36.46;99570.09;6241518;22;20031;-73
2022/06/08 09:06:15;;;;;;;7.30;2.83;;;;;;;31.46;36.51;99584.72;6239986;23;20004;-73
2022/06/08 09:08:46;;;;;;;5.25;2.70;;;;;;;31.43;36.50;99568.66;6241606;23;20058;-73
2022/06/08 09:11:40;;;;;;;5.25;2.55;;;;;;;31.42;36.82;99572.56;6241489;22;20004;-73
2022/06/08 09:14:14;;;;;;;3.97;2.83;;;;;;;31.56;36.56;99586.63;6243468;22;20340;-73
2022/06/08 09:16:52;;;;;;;3.03;2.50;;;;;;;31.63;36.33;99576.81;6243537;22;20004;-73
2022/06/08 09:19:21;;;;;;;4.78;2.97;;;;;;;31.69;36.27;99578.44;6243581;22;20015;-72
2022/06/08 09:21:47;;;;;;;3.08;2.85;;;;;;;31.72;36.12;99577.88;6241966;23;20042;-74
2022/06/08 09:24:47;;;;;;;4.07;3.03;;;;;;;31.58;36.22;99564.94;6243178;22;20007;-72
2022/06/08 09:27:22;;;;;;;4.70;3.15;;;;;;;31.61;36.38;99572.69;6230100;23;20445;-73
2022/06/08 09:29:49;;;;;;;3.58;2.80;;;;;;;31.62;36.55;99571.56;6243519;22;20057;-72
2022/06/08 09:32:44;;;;;;;3.40;3.08;;;;;;;31.64;36.67;99572.97;6243444;22;19996;-73
2022/06/08 09:35:31;;;;;;;5.70;2.58;;;;;;;31.66;36.67;99570.69;6240650;23;20008;-73
2022/06/08 09:38:02;;;;;;;2.83;2.53;;;;;;;31.79;36.56;99556.16;6243275;22;20004;-73
2022/06/08 09:40:49;;;;;;;5.38;2.80;;;;;;;31.77;36.02;99558.41;6243359;22;20012;-73
2022/06/08 09:43:51;;;;;;;3.03;2.70;;;;;;;31.82;36.03;99554.81;6243188;23;20079;-73
2022/06/08 09:52:31;;;;;;;2.67;2.47;;;;;;;31.62;36.35;99541.91;6242487;23;20046;-73
2022/06/08 09:55:20;;;;;;;3.42;3.13;;;;;;;31.57;36.48;99543.91;6242404;22;20027;-73
2022/06/08 09:57:57;;;;;;;3.35;3.00;;;;;;;31.53;36.15;99546.41;6240999;23;20444;-73
2022/06/08 10:00:27;;;;;;;7.25;2.80;;;;;;;31.58;36.51;99535.28;6242661;23;20012;-73
2022/06/08 10:03:14;;;;;;;6.20;2.83;;;;;;;31.65;36.73;99540.50;6242622;22;20000;-73
2022/06/08 10:06:21;;;;;;;4.00;2.70;;;;;;;31.66;36.47;99542.16;6242545;23;20030;-73
2022/06/08 10:08:56;;;;;;;4.13;3.47;;;;;;;31.62;36.35;99532.75;6209444;23;20012;-73
2022/06/08 10:11:45;;;;;;;4.65;3.17;;;;;;;31.65;35.75;99538.56;6209130;23;20524;-73
2022/06/08 10:14:49;;;;;;;3.00;2.70;;;;;;;31.57;36.47;99530.88;6231967;22;20065;-73
2022/06/08 10:17:30;;;;;;;5.70;3.35;;;;;;;31.59;36.92;99530.59;6223399;23;20012;-73
2022/06/08 10:20:15;;;;;;;3.30;3.00;;;;;;;31.63;36.96;99545.50;6242104;22;20000;-73
2022/06/08 10:22:49;;;;;;;5.15;3.03;;;;;;;31.63;36.83;99524.13;6240341;23;20016;-73
2022/06/08 10:25:15;;;;;;;4.53;3.40;;;;;;;31.67;37.12;99529.94;6242044;22;20000;-73
2022/06/08 10:28:04;;;;;;;4.68;3.10;;;;;;;31.71;37.37;99523.53;6240587;23;20019;-73
2022/06/08 10:30:39;;;;;;;4.22;3.72;;;;;;;31.72;36.75;99525.16;6243357;22;20000;-73
2022/06/08 10:33:12;;;;;;;6.82;3.10;;;;;;;31.68;36.86;99518.56;6242188;22;20014;-73
2022/06/08 10:35:46;;;;;;;3.55;3.17;;;;;;;31.72;37.06;99527.94;6242102;22;20000;-73
2022/06/08 10:38:32;;;;;;;5.30;2.90;;;;;;;31.71;36.99;99526.31;6242348;22;20004;-74
2022/06/08 10:44:01;;;;;;;5.88;3.10;;;;;;;31.74;37.28;99519.34;6242795;23;20075;-72
2022/06/08 10:46:46;;;;;;;3.47;3.17;;;;;;;31.75;37.32;99524.59;6242814;22;20007;-74
2022/06/08 10:49:39;;;;;;;3.35;3.05;;;;;;;31.70;37.20;99508.00;6243182;22;20437;-74
2022/06/08 10:52:20;;;;;;;4.18;3.70;;;;;;;31.73;37.28;99518.53;6225571;22;20020;-74
2022/06/08 10:54:54;;;;;;;5.65;3.53;;;;;;;31.71;37.60;99509.66;6242656;23;20445;-73
2022/06/08 10:57:42;;;;;;;4.45;3.22;;;;;;;31.74;37.54;99502.69;6242678;22;20085;-72
2022/06/08 11:00:19;;;;;;;5.75;3.67;;;;;;;31.72;37.59;99502.19;6241878;22;20392;-73
2022/06/08 11:03:03;;;;;;;4.13;3.00;;;;;;;31.76;38.02;99515.13;6242488;22;20461;-74
2022/06/08 11:05:42;;;;;;;3.65;3.17;;;;;;;31.83;37.97;99510.13;6242555;22;20000;-73
2022/06/08 11:08:08;;;;;;;8.75;3.63;;;;;;;31.87;38.09;99516.75;6240409;23;20004;-74
2022/06/08 11:10:53;;;;;;;3.38;3.08;;;;;;;31.95;37.86;99504.19;6242223;23;20000;-74
2022/06/08 11:13:24;;;;;;;6.22;3.03;;;;;;;31.98;37.84;99503.59;6242482;22;20329;-74
2022/06/08 11:15:53;;;;;;;3.75;3.42;;;;;;;31.94;37.59;99491.41;6240741;23;20004;-73
2022/06/08 11:18:53;;;;;;;4.00;2.97;;;;;;;31.89;37.38;99506.16;6240714;23;20004;-74
2022/06/08 11:21:30;;;;;;;4.68;3.90;;;;;;;31.70;37.28;99493.31;6242052;23;20099;-74
2022/06/08 11:24:08;;;;;;;4.65;3.30;;;;;;;31.61;37.45;99495.88;6242376;22;20095;-73
2022/06/08 11:26:36;;;;;;;3.70;3.30;;;;;;;31.59;37.99;99500.09;6242289;22;20023;-74
2022/06/08 11:29:17;;;;;;;4.68;3.47;;;;;;;31.54;38.01;99495.41;6242034;22;20337;-74
2022/06/08 11:31:42;;;;;;;4.22;3.83;;;;;;;31.49;38.15;99486.28;6242278;23;20426;-72
2022/06/08 11:34:31;;;;;;;6.50;3.97;;;;;;;31.43;38.23;99493.81;6243372;23;20090;-74
2022/06/08 11:37:03;;;;;;;3.88;3.50;;;;;;;31.42;37.98;99489.41;6242801;22;20011;-74
2022/06/08 11:40:03;;;;;;;3.70;3.40;;;;;;;31.41;38.10;99501.63;6243296;23;20004;-74
2022/06/08 11:42:35;;;;;;;5.40;3.70;;;;;;;31.31;38.10;99485.06;6243177;22;20049;-76
2022/06/08 11:45:34;;;;;;;4.78;3.72;;;;;;;31.37;38.27;99497.75;6242403;22;20505;-74
2022/06/08 11:48:14;;;;;;;5.53;3.75;;;;;;;31.47;37.70;99494.09;6241646;22;20004;-74
2022/06/08 11:50:44;;;;;;;6.03;3.70;;;;;;;31.46;37.61;99489.66;6242135;22;20000;-75
2022/06/08 11:53:24;;;;;;;6.20;3.65;;;;;;;31.43;37.42;99485.50;6241969;22;20235;-75
2022/06/08 11:56:12;;;;;;;4.10;3.70;;;;;;;31.43;37.67;99476.38;6240280;23;20008;-75
2022/06/08 11:58:44;;;;;;;4.20;3.80;;;;;;;31.45;37.76;99472.19;6240179;23;20035;-74
2022/06/08 12:01:15;;;;;;;6.60;4.20;;;;;;;31.40;37.95;99461.13;6241582;22;20001;-74
2022/06/08 12:03:43;;;;;;;5.60;3.70;;;;;;;31.42;38.36;99467.22;6241495;22;20003;-74
2022/06/08 12:06:14;;;;;;;4.35;3.95;;;;;;;31.47;38.00;99463.59;6241693;22;20027;-74
2022/06/08 12:08:42;;;;;;;5.18;3.63;;;;;;;31.52;37.83;99457.97;6241783;23;20078;-74
2022/06/08 12:11:11;;;;;;;7.47;4.18;;;;;;;31.50;37.84;99451.91;6241582;22;20003;-74
2022/06/08 12:13:37;;;;;;;6.20;4.22;;;;;;;31.42;38.15;99460.84;6242142;22;20364;-74